sensor_id;sensor_type;location;lat;lon;timestamp;P1;durP1;ratioP1;P2;durP2;ratioP2
81191;SDS011;70665;47.652;-2.730;2023-09-19T00:01:32;6.75;;;1.85;;
81191;SDS011;70665;47.652;-2.730;2023-09-19T00:03:59;12.38;;;3.03;;
81191;SDS011;70665;47.652;-2.730;2023-09-19T00:06:27;10.77;;;2.10;;
81191;SDS011;70665;47.652;-2.730;2023-09-19T00:08:56;7.53;;;1.80;;
81191;SDS011;70665;47.652;-2.730;2023-09-19T00:11:23;8.48;;;2.05;;
81191;SDS011;70665;47.652;-2.730;2023-09-19T00:13:51;8.05;;;1.90;;
81191;SDS011;70665;47.652;-2.730;2023-09-19T00:18:44;7.40;;;1.98;;
81191;SDS011;70665;47.652;-2.730;2023-09-19T00:21:10;7.45;;;1.83;;
81191;SDS011;70665;47.652;-2.730;2023-09-19T00:23:36;9.05;;;1.92;;
81191;SDS011;70665;47.652;-2.730;2023-09-19T00:28:28;5.45;;;1.67;;
81191;SDS011;70665;47.652;-2.730;2023-09-19T00:30:57;7.68;;;1.63;;
81191;SDS011;70665;47.652;-2.730;2023-09-19T00:33:26;9.13;;;1.80;;
81191;SDS011;70665;47.652;-2.730;2023-09-19T00:35:56;7.88;;;1.63;;
81191;SDS011;70665;47.652;-2.730;2023-09-19T00:38:23;7.32;;;2.15;;
81191;SDS011;70665;47.652;-2.730;2023-09-19T00:40:52;5.82;;;1.40;;
81191;SDS011;70665;47.652;-2.730;2023-09-19T00:43:19;7.65;;;1.77;;
81191;SDS011;70665;47.652;-2.730;2023-09-19T00:45:49;7.72;;;1.83;;
81191;SDS011;70665;47.652;-2.730;2023-09-19T00:48:16;11.65;;;3.72;;
81191;SDS011;70665;47.652;-2.730;2023-09-19T00:50:43;9.80;;;2.10;;
81191;SDS011;70665;47.652;-2.730;2023-09-19T00:53:12;7.93;;;2.15;;
81191;SDS011;70665;47.652;-2.730;2023-09-19T00:55:40;7.63;;;2.20;;
81191;SDS011;70665;47.652;-2.730;2023-09-19T00:58:07;13.73;;;2.30;;
81191;SDS011;70665;47.652;-2.730;2023-09-19T01:00:35;10.70;;;2.33;;
81191;SDS011;70665;47.652;-2.730;2023-09-19T01:03:01;13.05;;;2.35;;
81191;SDS011;70665;47.652;-2.730;2023-09-19T01:05:28;9.05;;;2.20;;
81191;SDS011;70665;47.652;-2.730;2023-09-19T01:07:54;10.57;;;2.63;;
81191;SDS011;70665;47.652;-2.730;2023-09-19T01:21:05;6.80;;;2.05;;
81191;SDS011;70665;47.652;-2.730;2023-09-19T01:31:44;8.80;;;1.80;;
81191;SDS011;70665;47.652;-2.730;2023-09-19T01:34:10;10.20;;;2.10;;
81191;SDS011;70665;47.652;-2.730;2023-09-19T01:39:04;7.15;;;1.50;;
81191;SDS011;70665;47.652;-2.730;2023-09-19T01:52:24;4.43;;;1.58;;
81191;SDS011;70665;47.652;-2.730;2023-09-19T01:54:56;8.18;;;1.60;;
81191;SDS011;70665;47.652;-2.730;2023-09-19T01:57:29;7.78;;;1.63;;
81191;SDS011;70665;47.652;-2.730;2023-09-19T02:00:01;8.07;;;1.90;;
81191;SDS011;70665;47.652;-2.730;2023-09-19T02:02:35;5.70;;;1.70;;
81191;SDS011;70665;47.652;-2.730;2023-09-19T02:05:03;7.03;;;1.73;;
81191;SDS011;70665;47.652;-2.730;2023-09-19T02:07:29;11.68;;;2.10;;
81191;SDS011;70665;47.652;-2.730;2023-09-19T02:09:59;6.10;;;1.63;;
81191;SDS011;70665;47.652;-2.730;2023-09-19T02:12:30;9.80;;;2.55;;
81191;SDS011;70665;47.652;-2.730;2023-09-19T02:14:56;5.25;;;1.30;;
81191;SDS011;70665;47.652;-2.730;2023-09-19T02:17:22;11.00;;;1.85;;
81191;SDS011;70665;47.652;-2.730;2023-09-19T02:19:51;6.53;;;1.65;;
81191;SDS011;70665;47.652;-2.730;2023-09-19T02:22:17;5.20;;;1.95;;
81191;SDS011;70665;47.652;-2.730;2023-09-19T02:24:43;7.95;;;1.80;;
81191;SDS011;70665;47.652;-2.730;2023-09-19T02:27:09;9.52;;;2.08;;
81191;SDS011;70665;47.652;-2.730;2023-09-19T02:29:37;8.43;;;2.42;;
81191;SDS011;70665;47.652;-2.730;2023-09-19T02:34:28;7.63;;;1.92;;
81191;SDS011;70665;47.652;-2.730;2023-09-19T02:36:55;6.25;;;1.95;;
81191;SDS011;70665;47.652;-2.730;2023-09-19T02:39:21;8.57;;;2.00;;
81191;SDS011;70665;47.652;-2.730;2023-09-19T02:41:48;11.13;;;2.47;;
81191;SDS011;70665;47.652;-2.730;2023-09-19T02:44:14;10.90;;;2.78;;
81191;SDS011;70665;47.652;-2.730;2023-09-19T02:46:40;7.70;;;2.10;;
81191;SDS011;70665;47.652;-2.730;2023-09-19T02:49:05;8.68;;;2.13;;
81191;SDS011;70665;47.652;-2.730;2023-09-19T02:53:58;10.23;;;2.10;;
81191;SDS011;70665;47.652;-2.730;2023-09-19T02:56:24;9.00;;;2.33;;
81191;SDS011;70665;47.652;-2.730;2023-09-19T02:58:50;10.38;;;2.22;;
81191;SDS011;70665;47.652;-2.730;2023-09-19T03:01:16;11.77;;;2.65;;
81191;SDS011;70665;47.652;-2.730;2023-09-19T03:03:43;8.32;;;2.20;;
81191;SDS011;70665;47.652;-2.730;2023-09-19T03:06:10;7.40;;;1.80;;
81191;SDS011;70665;47.652;-2.730;2023-09-19T03:08:37;12.68;;;2.70;;
81191;SDS011;70665;47.652;-2.730;2023-09-19T03:11:04;7.25;;;1.92;;
81191;SDS011;70665;47.652;-2.730;2023-09-19T03:13:36;9.57;;;1.70;;
81191;SDS011;70665;47.652;-2.730;2023-09-19T03:16:03;4.95;;;2.10;;
81191;SDS011;70665;47.652;-2.730;2023-09-19T03:18:30;8.57;;;2.50;;
81191;SDS011;70665;47.652;-2.730;2023-09-19T03:20:57;11.45;;;2.25;;
81191;SDS011;70665;47.652;-2.730;2023-09-19T03:23:24;5.63;;;1.50;;
81191;SDS011;70665;47.652;-2.730;2023-09-19T03:25:51;10.50;;;2.00;;
81191;SDS011;70665;47.652;-2.730;2023-09-19T03:28:17;6.63;;;2.20;;
81191;SDS011;70665;47.652;-2.730;2023-09-19T03:33:09;9.82;;;2.35;;
81191;SDS011;70665;47.652;-2.730;2023-09-19T03:35:37;8.27;;;1.83;;
81191;SDS011;70665;47.652;-2.730;2023-09-19T03:38:04;8.43;;;2.20;;
81191;SDS011;70665;47.652;-2.730;2023-09-19T03:42:56;10.50;;;2.30;;
81191;SDS011;70665;47.652;-2.730;2023-09-19T03:45:25;10.68;;;2.35;;
81191;SDS011;70665;47.652;-2.730;2023-09-19T03:50:17;6.90;;;2.05;;
81191;SDS011;70665;47.652;-2.730;2023-09-19T03:55:09;8.95;;;2.42;;
81191;SDS011;70665;47.652;-2.730;2023-09-19T03:57:37;10.48;;;2.70;;
81191;SDS011;70665;47.652;-2.730;2023-09-19T04:00:03;7.57;;;2.63;;
81191;SDS011;70665;47.652;-2.730;2023-09-19T04:02:38;10.43;;;2.70;;
81191;SDS011;70665;47.652;-2.730;2023-09-19T04:05:04;9.80;;;2.40;;
81191;SDS011;70665;47.652;-2.730;2023-09-19T04:09:56;6.28;;;2.17;;
81191;SDS011;70665;47.652;-2.730;2023-09-19T04:12:21;10.45;;;2.15;;
81191;SDS011;70665;47.652;-2.730;2023-09-19T04:14:47;7.13;;;2.30;;
81191;SDS011;70665;47.652;-2.730;2023-09-19T04:17:13;7.82;;;1.98;;
81191;SDS011;70665;47.652;-2.730;2023-09-19T04:22:05;8.43;;;2.42;;
81191;SDS011;70665;47.652;-2.730;2023-09-19T04:24:32;10.93;;;2.60;;
81191;SDS011;70665;47.652;-2.730;2023-09-19T04:29:24;7.85;;;2.17;;
81191;SDS011;70665;47.652;-2.730;2023-09-19T04:31:51;8.20;;;2.33;;
81191;SDS011;70665;47.652;-2.730;2023-09-19T04:34:17;13.32;;;2.00;;
81191;SDS011;70665;47.652;-2.730;2023-09-19T04:36:43;10.20;;;1.92;;
81191;SDS011;70665;47.652;-2.730;2023-09-19T04:39:09;11.60;;;1.67;;
81191;SDS011;70665;47.652;-2.730;2023-09-19T04:41:36;10.02;;;2.33;;
81191;SDS011;70665;47.652;-2.730;2023-09-19T04:44:05;19.55;;;2.67;;
81191;SDS011;70665;47.652;-2.730;2023-09-19T04:46:32;13.48;;;2.33;;
81191;SDS011;70665;47.652;-2.730;2023-09-19T04:48:58;8.27;;;1.70;;
81191;SDS011;70665;47.652;-2.730;2023-09-19T04:51:24;9.35;;;1.80;;
81191;SDS011;70665;47.652;-2.730;2023-09-19T04:53:50;8.75;;;2.20;;
81191;SDS011;70665;47.652;-2.730;2023-09-19T04:56:16;11.73;;;2.58;;
81191;SDS011;70665;47.652;-2.730;2023-09-19T04:58:41;6.63;;;1.60;;
81191;SDS011;70665;47.652;-2.730;2023-09-19T05:01:07;10.88;;;2.40;;
81191;SDS011;70665;47.652;-2.730;2023-09-19T05:03:36;12.85;;;2.10;;
81191;SDS011;70665;47.652;-2.730;2023-09-19T05:06:02;6.43;;;1.70;;
81191;SDS011;70665;47.652;-2.730;2023-09-19T05:08:30;7.85;;;2.10;;
81191;SDS011;70665;47.652;-2.730;2023-09-19T05:10:56;6.97;;;1.60;;
81191;SDS011;70665;47.652;-2.730;2023-09-19T05:13:21;11.68;;;2.33;;
81191;SDS011;70665;47.652;-2.730;2023-09-19T05:15:49;12.00;;;2.35;;
81191;SDS011;70665;47.652;-2.730;2023-09-19T05:18:17;14.80;;;2.75;;
81191;SDS011;70665;47.652;-2.730;2023-09-19T05:20:43;13.38;;;1.92;;
81191;SDS011;70665;47.652;-2.730;2023-09-19T05:23:09;9.55;;;1.95;;
81191;SDS011;70665;47.652;-2.730;2023-09-19T05:25:37;11.70;;;2.13;;
81191;SDS011;70665;47.652;-2.730;2023-09-19T05:28:07;10.02;;;1.90;;
81191;SDS011;70665;47.652;-2.730;2023-09-19T05:30:36;11.05;;;2.25;;
81191;SDS011;70665;47.652;-2.730;2023-09-19T05:33:03;16.40;;;2.17;;
81191;SDS011;70665;47.652;-2.730;2023-09-19T05:35:29;12.60;;;1.90;;
81191;SDS011;70665;47.652;-2.730;2023-09-19T05:37:56;8.02;;;1.67;;
81191;SDS011;70665;47.652;-2.730;2023-09-19T05:40:23;11.07;;;2.65;;
81191;SDS011;70665;47.652;-2.730;2023-09-19T05:42:49;9.38;;;1.77;;
81191;SDS011;70665;47.652;-2.730;2023-09-19T05:45:15;10.45;;;1.77;;
81191;SDS011;70665;47.652;-2.730;2023-09-19T05:47:47;13.50;;;2.05;;
81191;SDS011;70665;47.652;-2.730;2023-09-19T05:50:14;11.48;;;1.90;;
81191;SDS011;70665;47.652;-2.730;2023-09-19T05:52:41;9.25;;;1.80;;
81191;SDS011;70665;47.652;-2.730;2023-09-19T05:55:09;11.65;;;2.03;;
81191;SDS011;70665;47.652;-2.730;2023-09-19T05:57:35;8.25;;;1.95;;
81191;SDS011;70665;47.652;-2.730;2023-09-19T06:00:07;13.93;;;2.15;;
81191;SDS011;70665;47.652;-2.730;2023-09-19T06:02:39;9.00;;;2.00;;
81191;SDS011;70665;47.652;-2.730;2023-09-19T06:05:05;9.82;;;1.95;;
81191;SDS011;70665;47.652;-2.730;2023-09-19T06:07:34;8.43;;;1.70;;
81191;SDS011;70665;47.652;-2.730;2023-09-19T06:10:05;11.30;;;2.17;;
81191;SDS011;70665;47.652;-2.730;2023-09-19T06:12:32;8.35;;;2.03;;
81191;SDS011;70665;47.652;-2.730;2023-09-19T06:14:58;12.80;;;1.60;;
81191;SDS011;70665;47.652;-2.730;2023-09-19T06:17:24;8.10;;;1.75;;
81191;SDS011;70665;47.652;-2.730;2023-09-19T06:19:52;7.10;;;1.67;;
81191;SDS011;70665;47.652;-2.730;2023-09-19T06:22:17;8.55;;;2.00;;
81191;SDS011;70665;47.652;-2.730;2023-09-19T06:24:43;7.05;;;2.05;;
81191;SDS011;70665;47.652;-2.730;2023-09-19T06:27:10;11.40;;;2.58;;
81191;SDS011;70665;47.652;-2.730;2023-09-19T06:29:35;10.85;;;2.20;;
81191;SDS011;70665;47.652;-2.730;2023-09-19T06:32:06;11.90;;;2.80;;
81191;SDS011;70665;47.652;-2.730;2023-09-19T06:34:33;9.63;;;2.05;;
81191;SDS011;70665;47.652;-2.730;2023-09-19T06:36:59;11.57;;;1.92;;
81191;SDS011;70665;47.652;-2.730;2023-09-19T06:39:25;7.75;;;2.05;;
81191;SDS011;70665;47.652;-2.730;2023-09-19T06:41:51;16.15;;;2.38;;
81191;SDS011;70665;47.652;-2.730;2023-09-19T06:44:18;12.32;;;2.20;;
81191;SDS011;70665;47.652;-2.730;2023-09-19T06:46:47;8.68;;;1.95;;
81191;SDS011;70665;47.652;-2.730;2023-09-19T06:49:14;13.13;;;2.38;;
81191;SDS011;70665;47.652;-2.730;2023-09-19T06:51:40;14.02;;;2.72;;
81191;SDS011;70665;47.652;-2.730;2023-09-19T06:54:07;12.13;;;2.00;;
81191;SDS011;70665;47.652;-2.730;2023-09-19T06:56:32;12.07;;;2.20;;
81191;SDS011;70665;47.652;-2.730;2023-09-19T06:58:58;15.90;;;2.50;;
81191;SDS011;70665;47.652;-2.730;2023-09-19T07:01:24;15.68;;;2.72;;
81191;SDS011;70665;47.652;-2.730;2023-09-19T07:03:50;8.57;;;1.98;;
81191;SDS011;70665;47.652;-2.730;2023-09-19T07:06:16;12.98;;;2.50;;
81191;SDS011;70665;47.652;-2.730;2023-09-19T07:08:42;10.13;;;2.40;;
81191;SDS011;70665;47.652;-2.730;2023-09-19T07:11:08;14.18;;;2.42;;
81191;SDS011;70665;47.652;-2.730;2023-09-19T07:13:34;14.13;;;3.03;;
81191;SDS011;70665;47.652;-2.730;2023-09-19T07:16:00;15.73;;;2.28;;
81191;SDS011;70665;47.652;-2.730;2023-09-19T07:18:26;11.70;;;2.80;;
81191;SDS011;70665;47.652;-2.730;2023-09-19T07:20:56;13.40;;;2.78;;
81191;SDS011;70665;47.652;-2.730;2023-09-19T07:23:30;17.92;;;3.60;;
81191;SDS011;70665;47.652;-2.730;2023-09-19T07:26:00;11.98;;;2.58;;
81191;SDS011;70665;47.652;-2.730;2023-09-19T07:28:26;18.33;;;3.00;;
81191;SDS011;70665;47.652;-2.730;2023-09-19T07:30:53;14.70;;;2.60;;
81191;SDS011;70665;47.652;-2.730;2023-09-19T07:33:18;8.88;;;2.00;;
81191;SDS011;70665;47.652;-2.730;2023-09-19T07:35:47;10.50;;;2.70;;
81191;SDS011;70665;47.652;-2.730;2023-09-19T07:38:13;9.57;;;2.40;;
81191;SDS011;70665;47.652;-2.730;2023-09-19T07:40:39;12.60;;;2.63;;
81191;SDS011;70665;47.652;-2.730;2023-09-19T07:43:05;9.70;;;2.30;;
81191;SDS011;70665;47.652;-2.730;2023-09-19T07:45:31;14.60;;;2.50;;
81191;SDS011;70665;47.652;-2.730;2023-09-19T07:47:57;12.73;;;2.45;;
81191;SDS011;70665;47.652;-2.730;2023-09-19T07:50:23;9.95;;;2.20;;
81191;SDS011;70665;47.652;-2.730;2023-09-19T07:52:49;14.90;;;2.13;;
81191;SDS011;70665;47.652;-2.730;2023-09-19T07:55:18;10.32;;;2.10;;
81191;SDS011;70665;47.652;-2.730;2023-09-19T07:57:48;13.98;;;2.78;;
81191;SDS011;70665;47.652;-2.730;2023-09-19T08:00:14;19.45;;;2.75;;
81191;SDS011;70665;47.652;-2.730;2023-09-19T08:02:40;16.13;;;2.33;;
81191;SDS011;70665;47.652;-2.730;2023-09-19T08:05:07;13.05;;;2.13;;
81191;SDS011;70665;47.652;-2.730;2023-09-19T08:07:41;19.40;;;2.50;;
81191;SDS011;70665;47.652;-2.730;2023-09-19T08:10:09;12.27;;;3.00;;
81191;SDS011;70665;47.652;-2.730;2023-09-19T08:12:39;13.07;;;2.15;;
81191;SDS011;70665;47.652;-2.730;2023-09-19T08:15:12;15.98;;;2.70;;
81191;SDS011;70665;47.652;-2.730;2023-09-19T08:17:38;11.57;;;2.42;;
81191;SDS011;70665;47.652;-2.730;2023-09-19T08:20:04;12.55;;;2.45;;
81191;SDS011;70665;47.652;-2.730;2023-09-19T08:22:31;8.98;;;2.53;;
81191;SDS011;70665;47.652;-2.730;2023-09-19T08:24:57;9.00;;;2.35;;
81191;SDS011;70665;47.652;-2.730;2023-09-19T08:27:23;12.00;;;3.05;;
81191;SDS011;70665;47.652;-2.730;2023-09-19T08:29:52;15.70;;;3.33;;
81191;SDS011;70665;47.652;-2.730;2023-09-19T08:32:18;11.15;;;2.58;;
81191;SDS011;70665;47.652;-2.730;2023-09-19T08:34:49;14.10;;;2.70;;
81191;SDS011;70665;47.652;-2.730;2023-09-19T08:37:14;10.30;;;2.38;;
81191;SDS011;70665;47.652;-2.730;2023-09-19T08:39:44;12.52;;;3.25;;
81191;SDS011;70665;47.652;-2.730;2023-09-19T08:42:09;16.42;;;2.80;;
81191;SDS011;70665;47.652;-2.730;2023-09-19T08:44:37;13.95;;;2.58;;
81191;SDS011;70665;47.652;-2.730;2023-09-19T08:47:13;14.07;;;2.75;;
81191;SDS011;70665;47.652;-2.730;2023-09-19T08:52:32;9.70;;;2.35;;
81191;SDS011;70665;47.652;-2.730;2023-09-19T08:55:06;8.98;;;2.45;;
81191;SDS011;70665;47.652;-2.730;2023-09-19T08:57:35;12.55;;;2.70;;
81191;SDS011;70665;47.652;-2.730;2023-09-19T09:00:07;13.40;;;2.35;;
81191;SDS011;70665;47.652;-2.730;2023-09-19T09:02:39;15.30;;;2.63;;
81191;SDS011;70665;47.652;-2.730;2023-09-19T09:05:08;16.23;;;2.03;;
81191;SDS011;70665;47.652;-2.730;2023-09-19T09:07:36;15.73;;;2.30;;
81191;SDS011;70665;47.652;-2.730;2023-09-19T09:10:05;8.15;;;2.25;;
81191;SDS011;70665;47.652;-2.730;2023-09-19T09:12:32;8.18;;;1.80;;
81191;SDS011;70665;47.652;-2.730;2023-09-19T09:15:01;8.57;;;1.52;;
81191;SDS011;70665;47.652;-2.730;2023-09-19T09:17:29;11.07;;;2.38;;
81191;SDS011;70665;47.652;-2.730;2023-09-19T09:19:55;8.93;;;2.47;;
81191;SDS011;70665;47.652;-2.730;2023-09-19T09:22:21;15.80;;;2.13;;
81191;SDS011;70665;47.652;-2.730;2023-09-19T09:24:52;10.85;;;2.30;;
81191;SDS011;70665;47.652;-2.730;2023-09-19T09:27:19;10.60;;;1.90;;
81191;SDS011;70665;47.652;-2.730;2023-09-19T09:29:48;12.70;;;2.90;;
81191;SDS011;70665;47.652;-2.730;2023-09-19T09:34:45;7.97;;;1.80;;
81191;SDS011;70665;47.652;-2.730;2023-09-19T09:37:14;10.98;;;1.90;;
81191;SDS011;70665;47.652;-2.730;2023-09-19T09:39:40;5.50;;;1.88;;
81191;SDS011;70665;47.652;-2.730;2023-09-19T09:42:44;8.65;;;2.22;;
81191;SDS011;70665;47.652;-2.730;2023-09-19T09:45:21;8.75;;;2.20;;
81191;SDS011;70665;47.652;-2.730;2023-09-19T09:48:02;15.05;;;2.53;;
81191;SDS011;70665;47.652;-2.730;2023-09-19T09:50:32;14.07;;;2.40;;
81191;SDS011;70665;47.652;-2.730;2023-09-19T09:53:26;8.77;;;2.13;;
81191;SDS011;70665;47.652;-2.730;2023-09-19T09:56:05;9.57;;;2.13;;
81191;SDS011;70665;47.652;-2.730;2023-09-19T09:58:53;9.95;;;1.85;;
81191;SDS011;70665;47.652;-2.730;2023-09-19T10:01:20;18.58;;;2.42;;
81191;SDS011;70665;47.652;-2.730;2023-09-19T10:03:46;9.57;;;2.70;;
81191;SDS011;70665;47.652;-2.730;2023-09-19T10:06:14;8.93;;;1.90;;
81191;SDS011;70665;47.652;-2.730;2023-09-19T10:09:06;13.00;;;3.20;;
81191;SDS011;70665;47.652;-2.730;2023-09-19T10:11:37;8.88;;;2.00;;
81191;SDS011;70665;47.652;-2.730;2023-09-19T10:14:11;7.53;;;2.20;;
81191;SDS011;70665;47.652;-2.730;2023-09-19T10:16:47;11.75;;;2.45;;
81191;SDS011;70665;47.652;-2.730;2023-09-19T10:19:35;9.20;;;1.90;;
81191;SDS011;70665;47.652;-2.730;2023-09-19T10:22:02;9.27;;;2.15;;
81191;SDS011;70665;47.652;-2.730;2023-09-19T10:24:30;6.72;;;2.00;;
81191;SDS011;70665;47.652;-2.730;2023-09-19T10:27:01;12.77;;;2.05;;
81191;SDS011;70665;47.652;-2.730;2023-09-19T10:29:29;10.18;;;2.20;;
81191;SDS011;70665;47.652;-2.730;2023-09-19T10:32:00;9.60;;;2.58;;
81191;SDS011;70665;47.652;-2.730;2023-09-19T10:34:31;12.15;;;2.50;;
81191;SDS011;70665;47.652;-2.730;2023-09-19T10:37:00;12.55;;;2.33;;
81191;SDS011;70665;47.652;-2.730;2023-09-19T10:39:31;13.70;;;2.50;;
81191;SDS011;70665;47.652;-2.730;2023-09-19T10:41:58;10.15;;;2.20;;
81191;SDS011;70665;47.652;-2.730;2023-09-19T10:44:31;12.98;;;2.67;;
81191;SDS011;70665;47.652;-2.730;2023-09-19T10:46:57;11.88;;;2.40;;
81191;SDS011;70665;47.652;-2.730;2023-09-19T10:49:24;10.15;;;2.50;;
81191;SDS011;70665;47.652;-2.730;2023-09-19T10:51:52;12.43;;;2.38;;
81191;SDS011;70665;47.652;-2.730;2023-09-19T10:54:23;9.93;;;2.30;;
81191;SDS011;70665;47.652;-2.730;2023-09-19T10:56:51;11.45;;;3.38;;
81191;SDS011;70665;47.652;-2.730;2023-09-19T10:59:19;12.65;;;2.42;;
81191;SDS011;70665;47.652;-2.730;2023-09-19T11:01:52;13.38;;;2.65;;
81191;SDS011;70665;47.652;-2.730;2023-09-19T11:09:43;15.10;;;2.63;;
81191;SDS011;70665;47.652;-2.730;2023-09-19T11:12:11;13.30;;;2.47;;
81191;SDS011;70665;47.652;-2.730;2023-09-19T11:14:38;13.20;;;3.03;;
81191;SDS011;70665;47.652;-2.730;2023-09-19T11:30:30;13.68;;;2.70;;
81191;SDS011;70665;47.652;-2.730;2023-09-19T11:33:21;8.82;;;2.40;;
81191;SDS011;70665;47.652;-2.730;2023-09-19T11:43:48;10.25;;;2.15;;
81191;SDS011;70665;47.652;-2.730;2023-09-19T11:46:16;12.95;;;2.50;;
81191;SDS011;70665;47.652;-2.730;2023-09-19T11:48:47;12.90;;;2.40;;
81191;SDS011;70665;47.652;-2.730;2023-09-19T11:51:15;8.50;;;2.38;;
81191;SDS011;70665;47.652;-2.730;2023-09-19T11:53:56;11.52;;;2.97;;
81191;SDS011;70665;47.652;-2.730;2023-09-19T11:56:25;7.18;;;2.05;;
81191;SDS011;70665;47.652;-2.730;2023-09-19T11:58:56;10.52;;;2.35;;
81191;SDS011;70665;47.652;-2.730;2023-09-19T12:01:26;10.27;;;2.50;;
81191;SDS011;70665;47.652;-2.730;2023-09-19T12:04:00;15.10;;;3.22;;
81191;SDS011;70665;47.652;-2.730;2023-09-19T12:06:27;11.10;;;2.67;;
81191;SDS011;70665;47.652;-2.730;2023-09-19T12:09:01;9.32;;;2.20;;
81191;SDS011;70665;47.652;-2.730;2023-09-19T12:11:31;11.02;;;2.63;;
81191;SDS011;70665;47.652;-2.730;2023-09-19T12:13:58;16.95;;;3.53;;
81191;SDS011;70665;47.652;-2.730;2023-09-19T12:16:25;11.30;;;2.53;;
81191;SDS011;70665;47.652;-2.730;2023-09-19T12:18:55;12.50;;;2.85;;
81191;SDS011;70665;47.652;-2.730;2023-09-19T12:26:44;11.38;;;2.95;;
81191;SDS011;70665;47.652;-2.730;2023-09-19T12:29:19;19.67;;;3.22;;
81191;SDS011;70665;47.652;-2.730;2023-09-19T12:34:20;13.18;;;2.80;;
81191;SDS011;70665;47.652;-2.730;2023-09-19T12:36:47;11.13;;;2.83;;
81191;SDS011;70665;47.652;-2.730;2023-09-19T12:39:23;10.18;;;2.38;;
81191;SDS011;70665;47.652;-2.730;2023-09-19T12:41:52;10.98;;;2.58;;
81191;SDS011;70665;47.652;-2.730;2023-09-19T12:44:18;12.85;;;2.85;;
81191;SDS011;70665;47.652;-2.730;2023-09-19T12:46:44;11.65;;;2.90;;
81191;SDS011;70665;47.652;-2.730;2023-09-19T12:49:17;12.27;;;2.90;;
81191;SDS011;70665;47.652;-2.730;2023-09-19T12:51:43;9.93;;;2.28;;
81191;SDS011;70665;47.652;-2.730;2023-09-19T12:54:10;12.77;;;2.83;;
81191;SDS011;70665;47.652;-2.730;2023-09-19T12:56:40;13.43;;;3.50;;
81191;SDS011;70665;47.652;-2.730;2023-09-19T12:59:10;12.10;;;2.90;;
81191;SDS011;70665;47.652;-2.730;2023-09-19T13:01:40;12.40;;;3.63;;
81191;SDS011;70665;47.652;-2.730;2023-09-19T13:04:16;13.07;;;3.20;;
81191;SDS011;70665;47.652;-2.730;2023-09-19T13:06:51;15.75;;;3.35;;
81191;SDS011;70665;47.652;-2.730;2023-09-19T13:09:18;11.95;;;3.00;;
81191;SDS011;70665;47.652;-2.730;2023-09-19T13:11:45;13.15;;;3.38;;
81191;SDS011;70665;47.652;-2.730;2023-09-19T13:16:55;15.95;;;3.10;;
81191;SDS011;70665;47.652;-2.730;2023-09-19T13:25:16;17.10;;;4.15;;
81191;SDS011;70665;47.652;-2.730;2023-09-19T13:27:43;12.25;;;3.50;;
81191;SDS011;70665;47.652;-2.730;2023-09-19T13:30:11;10.60;;;3.28;;
81191;SDS011;70665;47.652;-2.730;2023-09-19T13:32:37;14.77;;;4.32;;
81191;SDS011;70665;47.652;-2.730;2023-09-19T13:35:05;12.13;;;3.75;;
81191;SDS011;70665;47.652;-2.730;2023-09-19T13:37:33;16.48;;;4.88;;
81191;SDS011;70665;47.652;-2.730;2023-09-19T13:40:02;15.10;;;3.30;;
81191;SDS011;70665;47.652;-2.730;2023-09-19T13:42:30;9.13;;;3.05;;
81191;SDS011;70665;47.652;-2.730;2023-09-19T13:44:56;10.60;;;3.65;;
81191;SDS011;70665;47.652;-2.730;2023-09-19T13:47:22;11.30;;;3.83;;
81191;SDS011;70665;47.652;-2.730;2023-09-19T13:49:49;14.60;;;3.72;;
81191;SDS011;70665;47.652;-2.730;2023-09-19T13:52:18;18.25;;;4.03;;
81191;SDS011;70665;47.652;-2.730;2023-09-19T13:54:44;14.23;;;3.58;;
81191;SDS011;70665;47.652;-2.730;2023-09-19T13:57:09;12.45;;;3.40;;
81191;SDS011;70665;47.652;-2.730;2023-09-19T13:59:35;16.85;;;3.60;;
81191;SDS011;70665;47.652;-2.730;2023-09-19T14:02:01;13.65;;;3.28;;
81191;SDS011;70665;47.652;-2.730;2023-09-19T14:04:30;12.93;;;3.33;;
81191;SDS011;70665;47.652;-2.730;2023-09-19T14:06:56;13.25;;;3.25;;
81191;SDS011;70665;47.652;-2.730;2023-09-19T14:09:23;15.43;;;3.20;;
81191;SDS011;70665;47.652;-2.730;2023-09-19T14:11:49;17.05;;;3.55;;
81191;SDS011;70665;47.652;-2.730;2023-09-19T14:14:17;19.08;;;3.78;;
81191;SDS011;70665;47.652;-2.730;2023-09-19T14:16:49;18.58;;;4.00;;
81191;SDS011;70665;47.652;-2.730;2023-09-19T14:19:15;16.25;;;3.30;;
81191;SDS011;70665;47.652;-2.730;2023-09-19T14:21:41;11.88;;;3.28;;
81191;SDS011;70665;47.652;-2.730;2023-09-19T14:24:07;17.55;;;3.53;;
81191;SDS011;70665;47.652;-2.730;2023-09-19T14:26:35;13.63;;;3.60;;
81191;SDS011;70665;47.652;-2.730;2023-09-19T14:29:01;11.63;;;3.63;;
81191;SDS011;70665;47.652;-2.730;2023-09-19T14:31:27;13.35;;;3.95;;
81191;SDS011;70665;47.652;-2.730;2023-09-19T14:33:54;19.63;;;3.53;;
81191;SDS011;70665;47.652;-2.730;2023-09-19T14:36:21;14.77;;;3.97;;
81191;SDS011;70665;47.652;-2.730;2023-09-19T14:38:47;12.40;;;3.45;;
81191;SDS011;70665;47.652;-2.730;2023-09-19T14:41:12;14.57;;;3.65;;
81191;SDS011;70665;47.652;-2.730;2023-09-19T14:43:39;14.73;;;4.00;;
81191;SDS011;70665;47.652;-2.730;2023-09-19T14:46:05;15.98;;;3.28;;
81191;SDS011;70665;47.652;-2.730;2023-09-19T14:48:35;15.10;;;3.90;;
81191;SDS011;70665;47.652;-2.730;2023-09-19T14:51:01;13.50;;;3.50;;
81191;SDS011;70665;47.652;-2.730;2023-09-19T14:53:31;10.82;;;3.00;;
81191;SDS011;70665;47.652;-2.730;2023-09-19T14:56:00;10.23;;;3.00;;
81191;SDS011;70665;47.652;-2.730;2023-09-19T14:58:30;13.02;;;3.75;;
81191;SDS011;70665;47.652;-2.730;2023-09-19T15:03:32;11.00;;;2.65;;
81191;SDS011;70665;47.652;-2.730;2023-09-19T15:06:04;10.93;;;3.33;;
81191;SDS011;70665;47.652;-2.730;2023-09-19T15:08:31;12.68;;;2.53;;
81191;SDS011;70665;47.652;-2.730;2023-09-19T15:10:59;11.93;;;2.92;;
81191;SDS011;70665;47.652;-2.730;2023-09-19T15:13:30;9.85;;;2.83;;
81191;SDS011;70665;47.652;-2.730;2023-09-19T15:16:00;12.82;;;3.03;;
81191;SDS011;70665;47.652;-2.730;2023-09-19T15:18:26;9.82;;;2.63;;
81191;SDS011;70665;47.652;-2.730;2023-09-19T15:20:52;15.18;;;3.20;;
81191;SDS011;70665;47.652;-2.730;2023-09-19T15:23:19;13.18;;;2.92;;
81191;SDS011;70665;47.652;-2.730;2023-09-19T15:25:48;12.38;;;3.17;;
81191;SDS011;70665;47.652;-2.730;2023-09-19T15:28:14;12.15;;;3.13;;
81191;SDS011;70665;47.652;-2.730;2023-09-19T15:30:40;9.98;;;2.40;;
81191;SDS011;70665;47.652;-2.730;2023-09-19T15:33:05;7.68;;;2.58;;
81191;SDS011;70665;47.652;-2.730;2023-09-19T15:35:31;10.00;;;2.42;;
81191;SDS011;70665;47.652;-2.730;2023-09-19T15:37:57;9.93;;;3.20;;
81191;SDS011;70665;47.652;-2.730;2023-09-19T15:40:25;14.32;;;2.92;;
81191;SDS011;70665;47.652;-2.730;2023-09-19T15:42:52;10.00;;;2.70;;
81191;SDS011;70665;47.652;-2.730;2023-09-19T15:45:19;9.60;;;3.20;;
81191;SDS011;70665;47.652;-2.730;2023-09-19T15:47:45;10.43;;;2.38;;
81191;SDS011;70665;47.652;-2.730;2023-09-19T15:50:11;8.13;;;2.70;;
81191;SDS011;70665;47.652;-2.730;2023-09-19T15:52:40;8.70;;;3.00;;
81191;SDS011;70665;47.652;-2.730;2023-09-19T15:55:08;9.60;;;2.72;;
81191;SDS011;70665;47.652;-2.730;2023-09-19T15:57:38;11.65;;;2.72;;
81191;SDS011;70665;47.652;-2.730;2023-09-19T16:00:04;10.48;;;2.47;;
81191;SDS011;70665;47.652;-2.730;2023-09-19T16:02:35;9.77;;;2.55;;
81191;SDS011;70665;47.652;-2.730;2023-09-19T16:05:01;7.25;;;2.00;;
81191;SDS011;70665;47.652;-2.730;2023-09-19T16:07:30;9.75;;;2.65;;
81191;SDS011;70665;47.652;-2.730;2023-09-19T16:09:56;12.48;;;2.95;;
81191;SDS011;70665;47.652;-2.730;2023-09-19T16:12:22;14.20;;;2.33;;
81191;SDS011;70665;47.652;-2.730;2023-09-19T16:14:48;9.05;;;2.75;;
81191;SDS011;70665;47.652;-2.730;2023-09-19T16:17:14;11.20;;;3.08;;
81191;SDS011;70665;47.652;-2.730;2023-09-19T16:19:40;11.98;;;3.25;;
81191;SDS011;70665;47.652;-2.730;2023-09-19T16:22:05;10.88;;;2.90;;